Llanybydder, United Kingdom
Current Conditions -  °F | °C
As of 7:50 PM on Wednesday 28 Jan 2015 (Local Time) from EGOP Reporting Station
Broken Clouds Broken Clouds  
Wind Chill: -1°   Ceiling: 8000
Heat Index:   Visibility: 6mi
Dew Point:   Wind: 30mph
Humidity: 70%   Direction: 280°W
Pressure: 29.65"   Gusts: NA
Location:  52.07°N, 4.16°W
Report Text: EGOP 281950Z AUTO 28026KT 9999 // BKN080/// 05/00 Q1004
Loading
Personal Weather Stations






























Interactive Weather Map New forecast layout! Learn more

10-Day Weather Forecast

Advertisements
Track Severe Weather on mobile